Time;durP1;ratioP1;P1;durP2;ratioP2;P2;SDS_P1;SDS_P2;PMS_P1;PMS_P2;Temp;Humidity;BMP_temperature;BMP_pressure;BME280_temperature;BME280_humidity;BME280_pressure;Samples;Min_cycle;Max_cycle;Signal;HPM_P1;HPM_P2
2022/10/02 00:00:53;;;;;;;8.10;2.35;;;;;;;;;;7391766;19;20009;-66
2022/10/02 00:03:25;;;;;;;11.63;2.17;;;;;;;;;;7390972;19;20014;-65
2022/10/02 00:06:08;;;;;;;8.88;2.35;;;;;;;;;;7391681;19;20003;-66
2022/10/02 00:08:40;;;;;;;11.00;2.45;;;;;;;;;;7391336;19;20066;-66
2022/10/02 00:11:16;;;;;;;11.18;2.75;;;;;;;;;;7391460;19;20016;-66
2022/10/02 00:13:46;;;;;;;9.80;2.60;;;;;;;;;;7392472;19;19999;-66
2022/10/02 00:16:37;;;;;;;10.03;2.30;;;;;;;;;;7392460;19;20033;-65
2022/10/02 00:19:03;;;;;;;11.90;1.77;;;;;;;;;;7391538;19;19999;-65
2022/10/02 00:21:28;;;;;;;8.05;2.15;;;;;;;;;;7391227;19;20083;-65
2022/10/02 00:23:58;;;;;;;15.80;2.43;;;;;;;;;;7392212;19;19995;-65
2022/10/02 00:26:54;;;;;;;11.85;2.38;;;;;;;;;;7392183;19;20260;-64
2022/10/02 00:29:45;;;;;;;10.13;2.20;;;;;;;;;;7391903;19;19999;-64
2022/10/02 00:32:15;;;;;;;8.48;2.10;;;;;;;;;;7390377;19;19998;-65
2022/10/02 00:35:22;;;;;;;9.15;2.45;;;;;;;;;;7393266;19;20005;-65
2022/10/02 00:38:33;;;;;;;8.40;2.15;;;;;;;;;;7387629;19;20007;-65
2022/10/02 00:41:30;;;;;;;9.18;2.15;;;;;;;;;;7389485;19;20078;-66
2022/10/02 00:44:28;;;;;;;13.57;2.50;;;;;;;;;;7389067;19;20023;-65
2022/10/02 00:47:08;;;;;;;13.43;2.60;;;;;;;;;;7389664;19;19998;-65
2022/10/02 00:49:47;;;;;;;15.65;2.47;;;;;;;;;;7391181;19;20079;-66
2022/10/02 00:52:15;;;;;;;8.85;2.47;;;;;;;;;;7389190;19;20502;-66
2022/10/02 00:54:55;;;;;;;11.80;2.47;;;;;;;;;;7391789;19;20464;-66
2022/10/02 00:57:40;;;;;;;9.43;2.47;;;;;;;;;;7391649;19;20552;-65
2022/10/02 01:00:08;;;;;;;6.55;2.00;;;;;;;;;;7391657;19;20002;-65
2022/10/02 01:02:45;;;;;;;13.18;2.80;;;;;;;;;;7387645;19;20014;-65
2022/10/02 01:05:12;;;;;;;7.32;2.00;;;;;;;;;;7389491;19;19998;-65
2022/10/02 01:07:41;;;;;;;12.38;2.55;;;;;;;;;;7390539;19;19998;-66
2022/10/02 01:10:08;;;;;;;10.70;2.50;;;;;;;;;;7393568;19;20345;-65
2022/10/02 01:12:34;;;;;;;11.65;2.58;;;;;;;;;;7388551;19;20007;-65
2022/10/02 01:14:59;;;;;;;9.90;3.03;;;;;;;;;;7390630;19;20022;-65
2022/10/02 01:17:36;;;;;;;13.80;2.72;;;;;;;;;;7390004;19;20020;-65
2022/10/02 01:20:04;;;;;;;10.55;2.40;;;;;;;;;;7390645;19;20079;-66
2022/10/02 01:22:39;;;;;;;9.73;2.20;;;;;;;;;;7389264;19;20009;-66
2022/10/02 01:25:06;;;;;;;9.32;2.85;;;;;;;;;;7390711;19;20006;-66
2022/10/02 01:27:33;;;;;;;10.93;2.22;;;;;;;;;;7390804;19;20058;-66
2022/10/02 01:30:07;;;;;;;15.75;2.50;;;;;;;;;;7389955;19;20009;-66
2022/10/02 01:32:50;;;;;;;11.55;2.38;;;;;;;;;;7387717;19;20468;-65
2022/10/02 01:35:18;;;;;;;7.93;1.70;;;;;;;;;;7388712;19;20010;-67
2022/10/02 01:37:45;;;;;;;7.82;2.33;;;;;;;;;;7388781;19;20094;-67
2022/10/02 01:40:24;;;;;;;10.30;2.10;;;;;;;;;;7388555;19;20452;-66
2022/10/02 01:42:50;;;;;;;5.90;1.90;;;;;;;;;;7387747;19;20009;-67
2022/10/02 01:45:15;;;;;;;7.80;2.30;;;;;;;;;;7387583;19;20003;-67
2022/10/02 01:48:09;;;;;;;10.70;2.60;;;;;;;;;;7389471;19;20003;-67
2022/10/02 01:50:58;;;;;;;7.80;2.13;;;;;;;;;;7390189;19;20006;-67
2022/10/02 01:53:38;;;;;;;10.05;2.20;;;;;;;;;;7386190;19;20003;-67
2022/10/02 01:56:34;;;;;;;11.63;2.30;;;;;;;;;;7389155;19;20027;-66
2022/10/02 02:00:06;;;;;;;13.52;2.30;;;;;;;;;;7390508;19;20267;-67
2022/10/02 02:02:50;;;;;;;12.05;2.25;;;;;;;;;;7385520;19;20352;-68
2022/10/02 02:05:40;;;;;;;8.15;2.13;;;;;;;;;;7386678;19;20033;-67
2022/10/02 02:08:18;;;;;;;8.63;2.50;;;;;;;;;;7387056;19;20088;-68
2022/10/02 02:11:06;;;;;;;12.55;2.08;;;;;;;;;;7386487;19;19995;-68
2022/10/02 02:13:37;;;;;;;7.85;1.73;;;;;;;;;;7385366;19;19995;-67
2022/10/02 02:16:17;;;;;;;13.52;2.20;;;;;;;;;;7387074;19;20003;-67
2022/10/02 02:18:56;;;;;;;9.68;1.95;;;;;;;;;;7387777;19;20157;-67
2022/10/02 02:21:30;;;;;;;7.85;2.20;;;;;;;;;;7387293;19;20942;-68
2022/10/02 02:23:58;;;;;;;10.60;2.08;;;;;;;;;;7385929;19;20023;-67
2022/10/02 02:26:26;;;;;;;17.00;2.63;;;;;;;;;;7388054;19;20098;-67
2022/10/02 02:28:56;;;;;;;9.75;2.22;;;;;;;;;;7387534;19;20009;-67
2022/10/02 02:31:27;;;;;;;14.70;2.90;;;;;;;;;;7386762;19;19995;-67
2022/10/02 02:34:05;;;;;;;;;;;;;;;;;;7386686;19;20365;-67
2022/10/02 02:36:39;;;;;;;5.15;1.75;;;;;;;;;;7386602;19;19986;-67
2022/10/02 02:39:10;;;;;;;8.52;1.85;;;;;;;;;;7388158;19;20115;-68
2022/10/02 02:41:44;;;;;;;9.23;2.03;;;;;;;;;;7387211;19;19999;-67
2022/10/02 02:44:24;;;;;;;11.18;1.95;;;;;;;;;;7387150;19;20031;-67
2022/10/02 02:47:27;;;;;;;13.38;2.00;;;;;;;;;;7387369;19;20023;-65
2022/10/02 02:50:03;;;;;;;10.88;2.30;;;;;;;;;;7382999;19;20588;-66
2022/10/02 02:52:34;;;;;;;8.68;2.10;;;;;;;;;;7385075;19;19995;-66
2022/10/02 02:55:14;;;;;;;9.18;2.20;;;;;;;;;;7387499;19;20683;-66
2022/10/02 02:57:49;;;;;;;8.20;1.95;;;;;;;;;;7387551;19;20003;-65
2022/10/02 03:00:15;;;;;;;4.35;1.80;;;;;;;;;;7389344;19;19998;-66
2022/10/02 03:02:41;;;;;;;9.23;2.20;;;;;;;;;;7386012;19;19995;-66
2022/10/02 03:05:15;;;;;;;10.48;2.42;;;;;;;;;;7387008;19;19990;-65
2022/10/02 03:07:48;;;;;;;9.82;2.22;;;;;;;;;;7388707;19;20011;-66
2022/10/02 03:10:31;;;;;;;9.90;2.40;;;;;;;;;;7386844;19;20066;-65
2022/10/02 03:13:17;;;;;;;9.15;2.20;;;;;;;;;;7384466;19;20017;-66
2022/10/02 03:16:23;;;;;;;10.50;2.60;;;;;;;;;;7384699;19;20085;-66
2022/10/02 03:18:54;;;;;;;8.40;2.15;;;;;;;;;;7391680;19;20344;-65
2022/10/02 03:21:33;;;;;;;6.53;1.92;;;;;;;;;;7384616;19;20002;-66
2022/10/02 03:24:19;;;;;;;9.32;2.25;;;;;;;;;;7386987;19;19999;-66
2022/10/02 03:26:56;;;;;;;6.68;2.10;;;;;;;;;;7387229;19;20002;-65
2022/10/02 03:29:34;;;;;;;10.23;2.40;;;;;;;;;;7386993;19;20681;-65
2022/10/02 03:32:02;;;;;;;10.88;2.05;;;;;;;;;;7389483;19;20005;-66
2022/10/02 03:34:30;;;;;;;9.77;2.10;;;;;;;;;;7394856;19;20412;-67
2022/10/02 03:36:55;;;;;;;12.80;2.20;;;;;;;;;;7394315;19;20078;-65
2022/10/02 03:39:21;;;;;;;10.50;2.00;;;;;;;;;;7394005;19;20143;-66
2022/10/02 03:41:46;;;;;;;9.52;2.30;;;;;;;;;;7394515;19;20001;-67
2022/10/02 03:44:11;;;;;;;10.20;2.30;;;;;;;;;;7394642;19;20448;-66
2022/10/02 03:46:36;;;;;;;10.35;2.42;;;;;;;;;;7394637;19;20130;-65
2022/10/02 03:49:02;;;;;;;7.68;2.20;;;;;;;;;;7393652;19;20479;-65
2022/10/02 03:51:27;;;;;;;10.73;2.25;;;;;;;;;;7391849;19;19994;-67
2022/10/02 03:53:53;;;;;;;6.45;2.03;;;;;;;;;;7393240;19;20008;-65
2022/10/02 03:56:43;;;;;;;11.30;2.35;;;;;;;;;;7393582;19;20396;-65
2022/10/02 03:59:14;;;;;;;10.90;2.25;;;;;;;;;;7391781;19;20347;-67
2022/10/02 04:01:45;;;;;;;6.65;2.20;;;;;;;;;;7391611;19;20077;-67
2022/10/02 04:04:17;;;;;;;10.63;3.08;;;;;;;;;;7391290;19;20023;-65
2022/10/02 04:06:50;;;;;;;14.98;2.67;;;;;;;;;;7392560;19;20023;-67
2022/10/02 04:09:29;;;;;;;13.10;2.40;;;;;;;;;;7392771;19;20073;-67
2022/10/02 04:12:01;;;;;;;6.18;2.20;;;;;;;;;;7388350;19;20006;-67
2022/10/02 04:14:34;;;;;;;9.50;2.63;;;;;;;;;;7387154;19;19995;-67
2022/10/02 04:17:01;;;;;;;13.63;2.75;;;;;;;;;;7390402;19;20384;-67
2022/10/02 04:19:42;;;;;;;10.77;2.55;;;;;;;;;;7389438;19;20015;-67
2022/10/02 04:22:22;;;;;;;11.48;2.45;;;;;;;;;;7387676;19;19999;-67
2022/10/02 04:24:55;;;;;;;11.02;2.10;;;;;;;;;;7388023;19;20007;-67
2022/10/02 04:27:30;;;;;;;16.45;3.05;;;;;;;;;;7390235;19;19990;-65
2022/10/02 04:30:00;;;;;;;9.90;2.80;;;;;;;;;;7391441;19;19994;-65
2022/10/02 04:32:30;;;;;;;10.52;3.00;;;;;;;;;;7389458;19;19998;-66
2022/10/02 04:34:56;;;;;;;12.48;3.33;;;;;;;;;;7391240;19;20002;-67
2022/10/02 04:37:48;;;;;;;12.05;2.60;;;;;;;;;;7391523;19;20134;-67
2022/10/02 04:40:49;;;;;;;13.43;3.33;;;;;;;;;;7389855;19;20625;-67
2022/10/02 04:43:45;;;;;;;11.73;2.83;;;;;;;;;;7389044;19;20483;-67
2022/10/02 04:46:36;;;;;;;21.25;3.40;;;;;;;;;;7392654;19;20074;-66
2022/10/02 04:49:17;;;;;;;13.73;3.00;;;;;;;;;;7391837;19;20006;-66
2022/10/02 04:52:16;;;;;;;16.60;3.35;;;;;;;;;;7392371;19;20009;-66
2022/10/02 04:55:03;;;;;;;14.07;3.53;;;;;;;;;;7391260;19;20007;-66
2022/10/02 04:57:34;;;;;;;15.85;3.60;;;;;;;;;;7391176;19;20604;-67
2022/10/02 05:00:17;;;;;;;12.15;3.20;;;;;;;;;;7391500;19;20003;-66
2022/10/02 05:03:10;;;;;;;13.30;3.25;;;;;;;;;;7389368;19;20378;-66
2022/10/02 05:05:53;;;;;;;10.68;3.10;;;;;;;;;;7392669;19;20003;-66
2022/10/02 05:08:48;;;;;;;15.57;3.40;;;;;;;;;;7392351;19;20489;-66
2022/10/02 05:11:31;;;;;;;13.25;2.75;;;;;;;;;;7388269;19;20461;-66
2022/10/02 05:13:59;;;;;;;9.60;2.65;;;;;;;;;;7389126;19;20226;-67
2022/10/02 05:16:25;;;;;;;14.00;3.35;;;;;;;;;;7390323;19;20064;-66
2022/10/02 05:19:28;;;;;;;14.67;3.73;;;;;;;;;;7390657;19;20500;-66
2022/10/02 05:22:17;;;;;;;11.48;3.15;;;;;;;;;;7389207;19;20240;-66
2022/10/02 05:24:49;;;;;;;8.27;3.05;;;;;;;;;;7389560;19;20019;-66
2022/10/02 05:27:31;;;;;;;12.30;2.70;;;;;;;;;;7395084;19;19998;-66
2022/10/02 05:30:06;;;;;;;8.45;2.83;;;;;;;;;;7390774;19;20019;-66
2022/10/02 05:33:02;;;;;;;12.02;2.65;;;;;;;;;;7387749;19;20006;-66
2022/10/02 05:36:03;;;;;;;14.18;3.10;;;;;;;;;;7390115;19;20002;-66
2022/10/02 05:38:55;;;;;;;10.80;2.80;;;;;;;;;;7389940;19;20003;-66
2022/10/02 05:41:48;;;;;;;9.00;2.85;;;;;;;;;;7389458;19;20023;-66
2022/10/02 05:44:19;;;;;;;10.70;3.08;;;;;;;;;;7389825;19;20014;-66
2022/10/02 05:47:00;;;;;;;12.07;2.50;;;;;;;;;;7389990;19;20009;-66
2022/10/02 05:49:31;;;;;;;;;;;;;;;;;;7390511;19;20085;-66
2022/10/02 05:52:17;;;;;;;;;;;;;;;;;;7387360;19;19939;-66
2022/10/02 05:54:45;;;;;;;7.70;2.92;;;;;;;;;;7386509;19;19938;-66
2022/10/02 05:57:20;;;;;;;8.75;2.85;;;;;;;;;;7391807;19;20026;-65
2022/10/02 06:00:18;;;;;;;7.95;2.80;;;;;;;;;;7387219;19;20003;-65
2022/10/02 06:02:48;;;;;;;10.60;2.90;;;;;;;;;;7386680;19;20074;-67
2022/10/02 06:05:20;;;;;;;9.77;2.73;;;;;;;;;;7388799;19;20364;-65
2022/10/02 06:07:49;;;;;;;9.60;2.53;;;;;;;;;;7391890;19;20006;-67
2022/10/02 06:10:20;;;;;;;7.45;2.08;;;;;;;;;;7391862;19;20011;-65
2022/10/02 06:13:12;;;;;;;7.18;2.15;;;;;;;;;;7388125;19;20493;-66
2022/10/02 06:15:47;;;;;;;6.75;2.58;;;;;;;;;;7393707;19;20034;-66
2022/10/02 06:18:22;;;;;;;7.85;2.33;;;;;;;;;;7389008;19;20002;-64
2022/10/02 06:21:00;;;;;;;10.77;2.65;;;;;;;;;;7391672;19;20361;-65
2022/10/02 06:23:34;;;;;;;9.30;2.25;;;;;;;;;;7388650;19;20338;-65
2022/10/02 06:26:11;;;;;;;6.60;2.40;;;;;;;;;;7388395;19;20061;-66
2022/10/02 06:28:45;;;;;;;8.50;2.60;;;;;;;;;;7388022;19;20479;-66
2022/10/02 06:31:20;;;;;;;8.40;2.28;;;;;;;;;;7385521;19;20006;-65
2022/10/02 06:33:45;;;;;;;6.68;2.03;;;;;;;;;;7384194;19;20027;-65
2022/10/02 06:36:26;;;;;;;8.38;2.30;;;;;;;;;;7383470;19;20481;-65
2022/10/02 06:39:03;;;;;;;9.30;2.47;;;;;;;;;;7383842;19;20007;-65
2022/10/02 06:41:48;;;;;;;6.85;2.20;;;;;;;;;;7380685;19;20375;-69
2022/10/02 06:44:32;;;;;;;5.80;2.08;;;;;;;;;;7385521;19;20007;-69
2022/10/02 06:47:16;;;;;;;6.10;2.50;;;;;;;;;;7390241;19;20007;-69
2022/10/02 06:49:58;;;;;;;6.18;1.90;;;;;;;;;;7378455;19;20048;-69
2022/10/02 06:52:44;;;;;;;10.38;2.40;;;;;;;;;;7383896;19;20006;-69
2022/10/02 06:55:40;;;;;;;6.68;1.88;;;;;;;;;;7384005;19;20010;-70
2022/10/02 06:58:23;;;;;;;7.78;2.35;;;;;;;;;;7382587;19;20066;-69
2022/10/02 07:00:54;;;;;;;6.40;2.20;;;;;;;;;;7381633;19;20006;-68
2022/10/02 07:03:40;;;;;;;8.82;2.35;;;;;;;;;;7382776;19;20009;-70
2022/10/02 07:06:32;;;;;;;3.97;1.67;;;;;;;;;;7380907;19;19999;-70
2022/10/02 07:09:19;;;;;;;4.00;2.00;;;;;;;;;;7386324;19;19999;-70
2022/10/02 07:12:08;;;;;;;6.75;2.10;;;;;;;;;;7384297;19;20112;-70
2022/10/02 07:14:52;;;;;;;7.10;2.50;;;;;;;;;;7384998;19;20006;-69
2022/10/02 07:17:31;;;;;;;5.55;2.10;;;;;;;;;;7383255;19;20037;-69
2022/10/02 07:20:17;;;;;;;6.78;2.20;;;;;;;;;;7385068;19;20007;-68
2022/10/02 07:22:48;;;;;;;4.93;1.90;;;;;;;;;;7382554;19;20384;-69
2022/10/02 07:25:25;;;;;;;6.40;2.17;;;;;;;;;;7383363;19;20359;-69
2022/10/02 07:28:00;;;;;;;4.57;2.05;;;;;;;;;;7386714;19;20001;-69
2022/10/02 07:30:34;;;;;;;3.30;1.98;;;;;;;;;;7382010;19;20002;-70
2022/10/02 07:33:31;;;;;;;5.25;2.33;;;;;;;;;;7383229;19;19998;-69
2022/10/02 07:36:02;;;;;;;6.43;2.20;;;;;;;;;;7383465;19;20003;-70
2022/10/02 07:38:42;;;;;;;7.90;2.30;;;;;;;;;;7382199;19;20482;-68
2022/10/02 07:41:29;;;;;;;6.95;2.35;;;;;;;;;;7385820;19;20006;-69
2022/10/02 07:43:54;;;;;;;5.30;2.22;;;;;;;;;;7382141;19;19990;-70
2022/10/02 07:46:35;;;;;;;8.70;2.47;;;;;;;;;;7379976;19;19999;-69
2022/10/02 07:49:28;;;;;;;6.03;2.33;;;;;;;;;;7382381;19;20227;-69
2022/10/02 07:52:01;;;;;;;8.10;2.38;;;;;;;;;;7378956;19;20753;-68
2022/10/02 07:54:48;;;;;;;5.93;2.17;;;;;;;;;;7381150;19;20002;-70
2022/10/02 07:57:51;;;;;;;6.95;2.50;;;;;;;;;;7382329;19;20019;-68
2022/10/02 08:00:19;;;;;;;6.30;2.33;;;;;;;;;;7383474;19;19998;-69
2022/10/02 08:02:56;;;;;;;4.53;2.15;;;;;;;;;;7382733;19;19999;-69
2022/10/02 08:05:32;;;;;;;11.23;2.30;;;;;;;;;;7385011;19;19995;-70
2022/10/02 08:08:03;;;;;;;7.55;2.40;;;;;;;;;;7384668;19;20088;-69
2022/10/02 08:10:36;;;;;;;7.28;2.05;;;;;;;;;;7383661;19;20003;-69
2022/10/02 08:13:10;;;;;;;6.57;2.40;;;;;;;;;;7382326;19;20082;-68
2022/10/02 08:15:37;;;;;;;5.50;2.40;;;;;;;;;;7384888;19;20006;-70
2022/10/02 08:18:43;;;;;;;6.03;2.35;;;;;;;;;;7388273;19;20002;-69
2022/10/02 08:21:15;;;;;;;3.38;1.90;;;;;;;;;;7388237;19;19998;-69
2022/10/02 08:23:48;;;;;;;6.53;2.10;;;;;;;;;;7391868;19;19995;-71
2022/10/02 08:26:20;;;;;;;6.03;1.70;;;;;;;;;;7391972;19;20002;-70
2022/10/02 08:28:50;;;;;;;5.72;2.40;;;;;;;;;;7391603;19;20002;-69
2022/10/02 08:31:15;;;;;;;3.92;2.20;;;;;;;;;;7388931;19;20464;-69
2022/10/02 08:33:42;;;;;;;4.03;1.80;;;;;;;;;;7391025;19;20018;-70
2022/10/02 08:36:31;;;;;;;6.07;2.25;;;;;;;;;;7394313;19;20003;-69
2022/10/02 08:39:08;;;;;;;6.47;2.83;;;;;;;;;;7391103;19;20026;-69
2022/10/02 08:42:00;;;;;;;3.75;1.83;;;;;;;;;;7388221;19;20003;-69
2022/10/02 08:44:40;;;;;;;8.55;3.58;;;;;;;;;;7389119;19;20025;-70
2022/10/02 08:47:26;;;;;;;4.90;2.50;;;;;;;;;;7390970;19;20509;-70
2022/10/02 08:50:29;;;;;;;3.70;1.98;;;;;;;;;;7390214;19;20005;-69
2022/10/02 08:53:12;;;;;;;4.22;2.03;;;;;;;;;;7381873;19;20478;-69
2022/10/02 08:56:12;;;;;;;4.00;1.80;;;;;;;;;;7386877;19;20078;-68
2022/10/02 08:59:11;;;;;;;4.53;1.90;;;;;;;;;;7385587;19;20008;-69
2022/10/02 09:02:01;;;;;;;4.47;1.95;;;;;;;;;;7386036;19;20082;-68
2022/10/02 09:05:17;;;;;;;7.03;2.33;;;;;;;;;;7384215;19;20364;-69
2022/10/02 09:08:08;;;;;;;4.32;1.92;;;;;;;;;;7384777;19;20077;-70
2022/10/02 09:10:57;;;;;;;5.53;2.13;;;;;;;;;;7387081;19;20010;-70
2022/10/02 09:14:04;;;;;;;4.47;1.83;;;;;;;;;;7385797;19;20330;-70
2022/10/02 09:16:48;;;;;;;5.18;2.00;;;;;;;;;;7388249;19;20417;-69
2022/10/02 09:19:25;;;;;;;6.63;2.20;;;;;;;;;;7392732;19;20002;-68
2022/10/02 09:22:02;;;;;;;5.10;2.03;;;;;;;;;;7392773;19;20006;-69
2022/10/02 09:24:54;;;;;;;4.72;1.63;;;;;;;;;;7392669;19;19998;-70
2022/10/02 09:27:38;;;;;;;;;;;;;;;;;;7391469;19;20007;-69
2022/10/02 09:30:13;;;;;;;5.65;2.53;;;;;;;;;;7390838;19;19944;-69
2022/10/02 09:33:20;;;;;;;5.00;1.90;;;;;;;;;;7387956;19;20002;-69
2022/10/02 09:35:58;;;;;;;2.83;1.60;;;;;;;;;;7386342;19;20002;-70
2022/10/02 09:38:35;;;;;;;3.38;1.40;;;;;;;;;;7385015;19;20024;-73
2022/10/02 09:41:23;;;;;;;1.92;1.20;;;;;;;;;;7381185;19;20404;-70
2022/10/02 09:44:07;;;;;;;4.18;1.83;;;;;;;;;;7385031;19;20003;-70
2022/10/02 09:46:43;;;;;;;4.30;1.73;;;;;;;;;;7385088;19;20002;-69
2022/10/02 09:49:35;;;;;;;5.53;1.63;;;;;;;;;;7384412;19;20038;-70
2022/10/02 09:52:29;;;;;;;4.07;1.75;;;;;;;;;;7387608;19;20103;-69
2022/10/02 09:55:30;;;;;;;1.98;1.33;;;;;;;;;;7386537;19;20532;-70
2022/10/02 09:58:15;;;;;;;3.42;1.45;;;;;;;;;;7388157;19;20429;-70
2022/10/02 10:01:21;;;;;;;1.95;1.33;;;;;;;;;;7387167;19;20034;-69
2022/10/02 10:04:02;;;;;;;2.28;1.60;;;;;;;;;;7388426;19;20476;-69
2022/10/02 10:06:49;;;;;;;3.53;1.58;;;;;;;;;;7389225;19;19999;-69
2022/10/02 10:09:23;;;;;;;3.17;1.50;;;;;;;;;;7388135;19;20006;-68
2022/10/02 10:12:07;;;;;;;3.53;1.65;;;;;;;;;;7387053;19;20539;-69
2022/10/02 10:14:42;;;;;;;3.63;1.85;;;;;;;;;;7386586;19;20013;-69
2022/10/02 10:17:29;;;;;;;3.30;1.48;;;;;;;;;;7387932;19;20006;-69
2022/10/02 10:20:13;;;;;;;2.80;1.60;;;;;;;;;;7387130;19;20464;-69
2022/10/02 10:22:58;;;;;;;2.58;1.50;;;;;;;;;;7387884;19;20003;-69
2022/10/02 10:25:49;;;;;;;1.83;1.23;;;;;;;;;;7387595;19;20007;-70
2022/10/02 10:28:44;;;;;;;2.03;1.20;;;;;;;;;;7387571;19;20006;-70
2022/10/02 10:31:39;;;;;;;3.20;1.60;;;;;;;;;;7386497;19;19995;-69
2022/10/02 10:34:44;;;;;;;6.05;2.17;;;;;;;;;;7386713;19;20069;-69
2022/10/02 10:40:25;;;;;;;1.17;0.95;;;;;;;;;;7386504;19;20013;-69
2022/10/02 10:43:13;;;;;;;1.83;1.05;;;;;;;;;;7386500;19;20002;-69
2022/10/02 10:45:49;;;;;;;1.73;1.10;;;;;;;;;;7387021;19;20085;-69
2022/10/02 10:48:32;;;;;;;2.63;1.30;;;;;;;;;;7386837;19;20066;-70
2022/10/02 10:51:30;;;;;;;1.88;1.25;;;;;;;;;;7385875;19;20447;-69
2022/10/02 10:54:21;;;;;;;1.83;1.10;;;;;;;;;;7387437;19;20005;-68
2022/10/02 10:56:58;;;;;;;;;;;;;;;;;;7389363;19;20003;-70
2022/10/02 11:00:09;;;;;;;6.70;2.53;;;;;;;;;;7386769;19;20008;-69
2022/10/02 11:03:03;;;;;;;2.85;1.40;;;;;;;;;;7385981;19;20457;-69
2022/10/02 11:06:16;;;;;;;2.40;1.20;;;;;;;;;;7386538;19;20666;-70
2022/10/02 11:09:04;;;;;;;1.88;1.23;;;;;;;;;;7387126;19;20006;-70
2022/10/02 11:11:39;;;;;;;0.80;0.80;;;;;;;;;;7385894;19;20003;-69
2022/10/02 11:14:14;;;;;;;1.10;0.93;;;;;;;;;;7386587;19;20701;-69
2022/10/02 11:17:21;;;;;;;0.88;0.88;;;;;;;;;;7386276;19;20002;-70
2022/10/02 11:20:08;;;;;;;2.33;0.90;;;;;;;;;;7384139;19;20520;-70
2022/10/02 11:23:04;;;;;;;1.00;0.95;;;;;;;;;;7385900;19;20054;-69
2022/10/02 11:25:43;;;;;;;4.72;0.95;;;;;;;;;;7386293;19;20497;-70
2022/10/02 11:28:28;;;;;;;1.45;0.80;;;;;;;;;;7386233;19;20006;-69
2022/10/02 11:31:31;;;;;;;1.65;1.13;;;;;;;;;;7388615;19;20419;-69
2022/10/02 11:34:25;;;;;;;1.55;1.02;;;;;;;;;;7385780;19;20002;-70
2022/10/02 11:37:25;;;;;;;0.60;0.60;;;;;;;;;;7385031;19;19999;-70
2022/10/02 11:40:13;;;;;;;1.88;1.30;;;;;;;;;;7384821;19;20409;-69
2022/10/02 11:43:00;;;;;;;1.30;0.90;;;;;;;;;;7385211;19;20062;-70
2022/10/02 11:45:58;;;;;;;3.03;1.05;;;;;;;;;;7385693;19;20028;-70
2022/10/02 11:48:33;;;;;;;0.77;0.77;;;;;;;;;;7385242;19;19999;-71
2022/10/02 11:51:24;;;;;;;2.75;0.98;;;;;;;;;;7383384;19;20362;-70
2022/10/02 11:53:52;;;;;;;2.17;0.73;;;;;;;;;;7391743;19;20002;-70
2022/10/02 11:56:45;;;;;;;1.17;1.08;;;;;;;;;;7392529;19;20085;-70
2022/10/02 11:59:51;;;;;;;1.30;1.20;;;;;;;;;;7392818;19;20002;-70
2022/10/02 12:02:34;;;;;;;1.35;0.90;;;;;;;;;;7389756;19;20006;-70
2022/10/02 12:05:23;;;;;;;1.00;1.00;;;;;;;;;;7390598;19;20011;-69
2022/10/02 12:07:57;;;;;;;0.80;0.80;;;;;;;;;;7392459;19;20006;-68
2022/10/02 12:10:38;;;;;;;2.28;0.90;;;;;;;;;;7390808;19;20018;-70
2022/10/02 12:13:15;;;;;;;;;;;;;;;;;;7388884;19;20025;-70
2022/10/02 12:16:06;;;;;;;1.70;1.02;;;;;;;;;;7391995;19;20289;-70
2022/10/02 12:18:52;;;;;;;1.85;1.08;;;;;;;;;;7390424;19;20115;-70
2022/10/02 12:27:54;;;;;;;0.77;0.77;;;;;;;;;;7391723;19;20023;-69
2022/10/02 12:30:23;;;;;;;0.73;0.73;;;;;;;;;;7389853;19;20006;-69
2022/10/02 12:33:07;;;;;;;1.10;1.00;;;;;;;;;;7388941;19;20025;-69
2022/10/02 12:36:08;;;;;;;2.70;1.10;;;;;;;;;;7393625;19;20009;-70
2022/10/02 12:38:55;;;;;;;23.95;14.23;;;;;;;;;;7389850;19;20002;-69
2022/10/02 12:41:59;;;;;;;5.85;3.33;;;;;;;;;;7384608;19;20337;-71
2022/10/02 12:44:48;;;;;;;1.77;1.20;;;;;;;;;;7394436;19;20014;-71
2022/10/02 12:47:32;;;;;;;3.65;1.23;;;;;;;;;;7393250;19;20098;-72
2022/10/02 12:50:35;;;;;;;1.55;1.20;;;;;;;;;;7394565;19;20283;-73
2022/10/02 12:53:10;;;;;;;1.38;1.10;;;;;;;;;;7388987;19;20539;-71
2022/10/02 12:55:56;;;;;;;1.60;1.10;;;;;;;;;;7389237;19;20003;-71
2022/10/02 12:58:32;;;;;;;1.15;1.02;;;;;;;;;;7391322;19;20086;-73
2022/10/02 13:01:21;;;;;;;1.33;1.23;;;;;;;;;;7389850;19;20005;-72
2022/10/02 13:04:23;;;;;;;1.73;1.30;;;;;;;;;;7388477;19;20500;-72
2022/10/02 13:07:09;;;;;;;11.35;6.88;;;;;;;;;;7391373;19;20015;-71
2022/10/02 13:09:50;;;;;;;3.22;2.03;;;;;;;;;;7389245;19;20318;-71
2022/10/02 13:12:35;;;;;;;;;;;;;;;;;;7388099;19;20016;-71
2022/10/02 13:15:37;;;;;;;1.85;0.75;;;;;;;;;;7390765;19;19915;-71
2022/10/02 13:18:24;;;;;;;1.05;0.90;;;;;;;;;;7389762;19;20477;-71
2022/10/02 13:21:14;;;;;;;3.45;1.00;;;;;;;;;;7387853;19;20027;-72
2022/10/02 13:24:18;;;;;;;1.33;1.10;;;;;;;;;;7390443;19;20347;-72
2022/10/02 13:27:15;;;;;;;3.45;1.85;;;;;;;;;;7394795;19;20005;-72
2022/10/02 13:30:08;;;;;;;1.42;1.10;;;;;;;;;;7390390;19;20023;-71
2022/10/02 13:32:54;;;;;;;2.63;1.20;;;;;;;;;;7389342;19;20095;-73
2022/10/02 13:35:33;;;;;;;1.27;1.13;;;;;;;;;;7390097;19;20359;-72
2022/10/02 13:38:41;;;;;;;1.42;1.02;;;;;;;;;;7389889;19;19999;-72
2022/10/02 13:41:30;;;;;;;4.05;1.70;;;;;;;;;;7387659;19;20081;-72
2022/10/02 13:44:08;;;;;;;0.88;0.85;;;;;;;;;;7390212;19;19995;-72
2022/10/02 13:46:40;;;;;;;2.08;1.23;;;;;;;;;;7388888;19;20001;-72
2022/10/02 13:49:30;;;;;;;1.70;1.20;;;;;;;;;;7389083;19;19998;-72
2022/10/02 13:52:46;;;;;;;1.63;0.93;;;;;;;;;;7386443;19;20139;-72
2022/10/02 13:55:28;;;;;;;2.70;1.30;;;;;;;;;;7389275;19;20058;-71
2022/10/02 13:58:22;;;;;;;1.65;0.98;;;;;;;;;;7389037;19;19995;-73
2022/10/02 14:00:53;;;;;;;3.45;1.35;;;;;;;;;;7387924;19;20002;-72
2022/10/02 14:03:50;;;;;;;2.28;1.50;;;;;;;;;;7389435;19;19995;-72
2022/10/02 14:06:21;;;;;;;3.92;2.13;;;;;;;;;;7388870;19;19998;-72
2022/10/02 14:08:57;;;;;;;5.50;3.00;;;;;;;;;;7386374;19;20023;-71
2022/10/02 14:11:42;;;;;;;13.98;9.15;;;;;;;;;;7373688;19;20014;-70
2022/10/02 14:14:26;;;;;;;3.50;2.00;;;;;;;;;;7386410;19;20096;-70
2022/10/02 14:17:00;;;;;;;1.55;1.20;;;;;;;;;;7384126;19;20015;-70
2022/10/02 14:19:45;;;;;;;5.70;1.50;;;;;;;;;;7387297;19;20006;-71
2022/10/02 14:22:19;;;;;;;2.47;1.30;;;;;;;;;;7382896;19;19999;-71
2022/10/02 14:24:59;;;;;;;4.35;1.40;;;;;;;;;;7384494;19;20002;-71
2022/10/02 14:27:43;;;;;;;2.95;1.58;;;;;;;;;;7384611;19;20009;-69
2022/10/02 14:30:24;;;;;;;14.60;9.02;;;;;;;;;;7386198;19;20001;-70
2022/10/02 14:32:58;;;;;;;4.47;2.63;;;;;;;;;;7383371;19;20306;-70
2022/10/02 14:35:32;;;;;;;4.53;2.72;;;;;;;;;;7387962;19;20523;-70
2022/10/02 14:38:43;;;;;;;3.63;1.73;;;;;;;;;;7384283;19;20532;-70
2022/10/02 14:41:24;;;;;;;3.63;1.80;;;;;;;;;;7380531;19;20002;-71
2022/10/02 14:43:50;;;;;;;2.40;1.52;;;;;;;;;;7385900;19;20037;-70
2022/10/02 14:46:48;;;;;;;5.65;1.80;;;;;;;;;;7385448;19;20014;-71
2022/10/02 14:49:35;;;;;;;3.42;1.50;;;;;;;;;;7388083;19;20007;-72
2022/10/02 14:52:26;;;;;;;3.75;1.70;;;;;;;;;;7383055;19;20062;-71
2022/10/02 14:54:59;;;;;;;;;;;;;;;;;;7381877;19;20003;-70
2022/10/02 14:58:03;;;;;;;3.00;1.70;;;;;;;;;;7382993;19;19918;-71
2022/10/02 15:01:00;;;;;;;2.92;1.65;;;;;;;;;;7387258;19;20365;-71
2022/10/02 15:04:03;;;;;;;3.33;1.60;;;;;;;;;;7384947;19;20009;-70
2022/10/02 15:06:37;;;;;;;4.32;1.50;;;;;;;;;;7389467;19;20001;-71
2022/10/02 15:09:24;;;;;;;2.42;1.55;;;;;;;;;;7386458;19;20450;-70
2022/10/02 15:12:05;;;;;;;2.45;1.40;;;;;;;;;;7384451;19;20488;-72
2022/10/02 15:15:01;;;;;;;8.52;5.50;;;;;;;;;;7387866;19;20006;-70
2022/10/02 15:17:54;;;;;;;6.15;2.80;;;;;;;;;;7388324;19;20006;-69
2022/10/02 15:20:35;;;;;;;3.97;2.08;;;;;;;;;;7382327;19;20374;-71
2022/10/02 15:23:02;;;;;;;;;;;;;;;;;;7385920;19;20016;-71
2022/10/02 15:26:13;;;;;;;3.10;1.40;;;;;;;;;;7374752;19;20829;-70
2022/10/02 15:28:44;;;;;;;2.72;1.48;;;;;;;;;;7392410;19;20014;-70
2022/10/02 15:31:31;;;;;;;;;;;;;;;;;;7391284;19;20024;-71
2022/10/02 15:34:03;;;;;;;3.38;1.40;;;;;;;;;;7393145;19;19922;-72
2022/10/02 15:36:47;;;;;;;2.10;1.40;;;;;;;;;;7394239;19;20480;-71
2022/10/02 15:39:45;;;;;;;2.55;1.33;;;;;;;;;;7392832;19;20003;-71
2022/10/02 15:42:16;;;;;;;1.17;1.13;;;;;;;;;;7390615;19;19998;-71
2022/10/02 15:44:59;;;;;;;;;;;;;;;;;;7392119;19;19999;-73
2022/10/02 15:47:57;;;;;;;3.83;1.30;;;;;;;;;;7393209;19;20326;-72
2022/10/02 15:50:41;;;;;;;3.72;1.63;;;;;;;;;;7391697;19;20009;-70
2022/10/02 15:53:19;;;;;;;6.35;2.03;;;;;;;;;;7384375;19;20028;-71
2022/10/02 15:55:51;;;;;;;4.22;1.70;;;;;;;;;;7387418;19;20024;-70
2022/10/02 15:58:35;;;;;;;5.43;2.00;;;;;;;;;;7388057;19;20004;-70
2022/10/02 16:01:41;;;;;;;2.17;1.38;;;;;;;;;;7382671;19;20042;-72
2022/10/02 16:04:37;;;;;;;4.88;1.50;;;;;;;;;;7392094;19;20006;-70
2022/10/02 16:07:24;;;;;;;4.45;1.60;;;;;;;;;;7390859;19;19999;-70
2022/10/02 16:09:49;;;;;;;3.17;1.60;;;;;;;;;;7389554;19;20084;-71
2022/10/02 16:12:32;;;;;;;5.47;2.00;;;;;;;;;;7389911;19;20480;-70
2022/10/02 16:15:24;;;;;;;4.03;1.80;;;;;;;;;;7388362;19;20019;-70
2022/10/02 16:17:53;;;;;;;5.35;2.33;;;;;;;;;;7388020;19;20045;-73
2022/10/02 16:20:49;;;;;;;5.88;2.58;;;;;;;;;;7391902;19;19998;-71
2022/10/02 16:23:45;;;;;;;6.80;2.55;;;;;;;;;;7390379;19;20401;-72